createdAt,value
2023-01-06T00:08:08.029Z,3.66
2023-01-06T00:18:15.808Z,3.58
2023-01-06T00:28:23.169Z,3.52
2023-01-06T00:38:31.351Z,3.51
2023-01-06T00:48:38.607Z,3.51
2023-01-06T00:58:46.184Z,3.45
2023-01-06T01:08:54.448Z,3.36
2023-01-06T01:19:02.197Z,3.32
2023-01-06T01:29:11.555Z,3.32
2023-01-06T01:39:20.467Z,3.33
2023-01-06T01:49:32.362Z,3.34
2023-01-06T01:59:42.032Z,3.33
2023-01-06T02:09:56.096Z,3.26
2023-01-06T02:20:36.775Z,3.25
2023-01-06T02:31:08.813Z,3.30
2023-01-06T02:41:16.239Z,3.33
2023-01-06T02:51:22.171Z,3.29
2023-01-06T03:01:34.803Z,3.20
2023-01-06T03:11:44.958Z,3.18
2023-01-06T03:21:53.496Z,3.20
2023-01-06T03:32:00.044Z,3.21
2023-01-06T03:42:36.269Z,3.16
2023-01-06T03:52:50.735Z,3.07
2023-01-06T04:02:58.039Z,3.00
2023-01-06T04:13:05.419Z,2.98
2023-01-06T04:23:12.690Z,3.01
2023-01-06T04:33:19.936Z,3.03
2023-01-06T04:43:27.073Z,2.99
2023-01-06T04:53:35.195Z,2.76
2023-01-06T05:03:43.379Z,2.58
2023-01-06T05:13:51.267Z,2.45
2023-01-06T05:23:58.587Z,2.53
2023-01-06T05:34:05.753Z,2.72
2023-01-06T05:44:13.003Z,2.84
2023-01-06T05:54:20.200Z,2.86
2023-01-06T06:04:27.263Z,2.71
2023-01-06T06:14:34.201Z,2.66
2023-01-06T06:24:41.294Z,2.71
2023-01-06T06:34:48.271Z,2.86
2023-01-06T06:44:55.220Z,3.01
2023-01-06T06:55:02.302Z,3.02
2023-01-06T07:05:07.241Z,2.94
2023-01-06T07:15:15.076Z,2.79
2023-01-06T07:25:21.002Z,2.77
2023-01-06T07:35:28.231Z,2.86
2023-01-06T07:45:35.581Z,3.08
2023-01-06T07:55:43.028Z,3.14
2023-01-06T08:05:50.300Z,3.14
2023-01-06T08:15:58.085Z,3.10
2023-01-06T08:26:02.922Z,3.10
2023-01-06T08:36:14.786Z,3.08
2023-01-06T08:46:22.822Z,3.16
2023-01-06T08:56:31.828Z,3.31
2023-01-06T09:06:40.253Z,3.43
2023-01-06T09:16:47.127Z,3.50
2023-01-06T09:26:54.627Z,3.46
2023-01-06T09:37:01.890Z,3.47
2023-01-06T09:47:13.302Z,3.70
2023-01-06T09:57:27.056Z,3.96
2023-01-06T10:07:32.403Z,4.09
2023-01-06T10:17:48.731Z,4.24
2023-01-06T10:27:53.706Z,4.29
2023-01-06T10:38:07.728Z,4.35
2023-01-06T10:48:15.574Z,4.49
2023-01-06T10:58:22.884Z,4.76
2023-01-06T11:08:31.088Z,4.79
2023-01-06T11:18:39.181Z,4.84
2023-01-06T11:28:48.582Z,4.89
2023-01-06T11:38:54.126Z,4.91
2023-01-06T11:49:00.512Z,5.07
2023-01-06T11:59:11.995Z,5.20
2023-01-06T12:09:18.149Z,5.24
2023-01-06T12:19:26.790Z,5.16
2023-01-06T12:29:35.059Z,5.00
2023-01-06T12:39:40.744Z,4.89
2023-01-06T13:00:05.358Z,4.97
2023-01-06T13:10:19.914Z,4.77
2023-01-06T13:20:25.125Z,4.61
2023-01-06T13:30:56.670Z,4.55
2023-01-06T13:41:08.024Z,4.50
2023-01-06T13:51:12.840Z,4.39
2023-01-06T14:01:34.617Z,4.38
2023-01-06T14:11:42.453Z,4.43
2023-01-06T14:21:51.272Z,4.45
2023-01-06T14:31:58.828Z,4.41
2023-01-06T14:42:06.891Z,4.36
2023-01-06T14:52:20.693Z,4.39
2023-01-06T15:02:32.334Z,4.45
2023-01-06T15:12:42.125Z,4.41
2023-01-06T15:22:54.012Z,4.29
2023-01-06T15:33:03.241Z,4.30
2023-01-06T15:43:10.201Z,4.31
2023-01-06T15:53:17.287Z,4.35
2023-01-06T16:03:26.977Z,4.45
2023-01-06T16:13:34.334Z,4.53
2023-01-06T16:23:41.700Z,4.58
2023-01-06T16:33:48.811Z,4.69
2023-01-06T16:43:56.433Z,4.81
2023-01-06T16:54:10.763Z,4.96
2023-01-06T17:04:18.390Z,5.11
2023-01-06T17:14:26.314Z,5.21
2023-01-06T17:24:33.889Z,5.18
2023-01-06T17:34:41.522Z,5.21
2023-01-06T17:44:54.155Z,5.35
2023-01-06T17:55:20.683Z,5.47
2023-01-06T18:06:02.173Z,5.56
2023-01-06T18:16:24.405Z,5.65
2023-01-06T18:26:34.126Z,5.68
2023-01-06T18:36:45.129Z,5.74
2023-01-06T18:46:52.160Z,5.75
2023-01-06T18:57:00.128Z,5.77
2023-01-06T19:07:14.370Z,5.81
2023-01-06T19:17:21.178Z,5.91
2023-01-06T19:27:43.593Z,6.03
2023-01-06T19:37:53.724Z,6.16
2023-01-06T19:47:59.891Z,6.27
2023-01-06T19:58:05.098Z,6.34
2023-01-06T20:08:13.819Z,6.46
2023-01-06T20:18:20.374Z,6.53
2023-01-06T20:28:27.559Z,6.59
2023-01-06T20:38:34.777Z,6.67
2023-01-06T20:48:41.542Z,6.77
2023-01-06T20:58:48.753Z,6.84
2023-01-06T21:08:56.166Z,6.92
2023-01-06T21:19:03.797Z,6.97
2023-01-06T21:29:11.085Z,7.03
2023-01-06T21:39:18.390Z,7.05
2023-01-06T21:49:25.913Z,7.03
2023-01-06T21:59:33.576Z,7.01
2023-01-06T22:09:43.627Z,6.99
2023-01-06T22:19:53.521Z,7.01
2023-01-06T22:30:00.662Z,7.04
2023-01-06T22:40:10.122Z,7.07
2023-01-06T22:50:16.197Z,7.09
2023-01-06T23:00:23.703Z,7.11
2023-01-06T23:10:30.748Z,7.11
2023-01-06T23:20:37.829Z,7.10
2023-01-06T23:30:44.888Z,7.06
2023-01-06T23:40:52.328Z,7.04
2023-01-06T23:51:00.131Z,7.00
